sensor_id;sensor_type;location;lat;lon;timestamp;pressure;altitude;pressure_sealevel;temperature;humidity
32759;BME280;19125;52.360;9.974;2023-05-03T00:01:01;87209.34;;;-145.17;55.14
32759;BME280;19125;52.360;9.974;2023-05-03T00:03:31;87229.19;;;-145.17;55.15
32759;BME280;19125;52.360;9.974;2023-05-03T00:05:56;87213.31;;;-145.17;55.05
32759;BME280;19125;52.360;9.974;2023-05-03T00:08:22;87185.53;;;-145.17;55.08
32759;BME280;19125;52.360;9.974;2023-05-03T00:10:47;87219.28;;;-145.17;55.30
32759;BME280;19125;52.360;9.974;2023-05-03T00:13:13;87243.09;;;-145.17;55.16
32759;BME280;19125;52.360;9.974;2023-05-03T00:15:38;87207.34;;;-145.17;54.96
32759;BME280;19125;52.360;9.974;2023-05-03T00:18:03;87280.81;;;-145.17;54.99
32759;BME280;19125;52.360;9.974;2023-05-03T00:20:29;87219.28;;;-145.17;55.58
32759;BME280;19125;52.360;9.974;2023-05-03T00:22:55;87183.53;;;-145.17;54.99
32759;BME280;19125;52.360;9.974;2023-05-03T00:25:20;87241.09;;;-145.17;55.43
32759;BME280;19125;52.360;9.974;2023-05-03T00:27:45;87243.09;;;-145.17;54.98
32759;BME280;19125;52.360;9.974;2023-05-03T00:30:11;87227.22;;;-145.17;54.89
32759;BME280;19125;52.360;9.974;2023-05-03T00:32:37;87256.97;;;-145.17;55.49
32759;BME280;19125;52.360;9.974;2023-05-03T00:35:02;87241.09;;;-145.17;55.09
32759;BME280;19125;52.360;9.974;2023-05-03T00:37:28;87302.63;;;-145.17;55.30
32759;BME280;19125;52.360;9.974;2023-05-03T00:39:55;87270.88;;;-145.17;55.90
32759;BME280;19125;52.360;9.974;2023-05-03T00:42:20;87253.00;;;-145.17;55.87
32759;BME280;19125;52.360;9.974;2023-05-03T00:44:45;87286.75;;;-145.17;55.92
32759;BME280;19125;52.360;9.974;2023-05-03T00:47:11;87294.69;;;-145.17;56.01
32759;BME280;19125;52.360;9.974;2023-05-03T00:49:37;87318.50;;;-145.17;56.08
32759;BME280;19125;52.360;9.974;2023-05-03T00:52:02;87310.56;;;-145.17;56.45
32759;BME280;19125;52.360;9.974;2023-05-03T00:54:28;87322.47;;;-145.17;56.55
32759;BME280;19125;52.360;9.974;2023-05-03T00:56:55;87413.78;;;-145.17;56.64
32759;BME280;19125;52.360;9.974;2023-05-03T00:59:20;87346.31;;;-145.17;56.94
32759;BME280;19125;52.360;9.974;2023-05-03T01:01:50;87350.28;;;-145.17;56.86
32759;BME280;19125;52.360;9.974;2023-05-03T01:04:17;87360.19;;;-145.17;57.43
32759;BME280;19125;52.360;9.974;2023-05-03T01:09:35;87407.84;;;-145.17;57.34
32759;BME280;19125;52.360;9.974;2023-05-03T01:17:12;87427.69;;;-145.17;57.67
32759;BME280;19125;52.360;9.974;2023-05-03T01:19:55;87453.50;;;-145.17;58.34
32759;BME280;19125;52.360;9.974;2023-05-03T01:22:42;87405.84;;;-145.17;58.28
32759;BME280;19125;52.360;9.974;2023-05-03T01:25:13;87443.56;;;-145.17;58.47
32759;BME280;19125;52.360;9.974;2023-05-03T01:27:40;87453.50;;;-145.17;58.26
32759;BME280;19125;52.360;9.974;2023-05-03T01:30:07;87451.50;;;-145.17;58.36
32759;BME280;19125;52.360;9.974;2023-05-03T01:35:50;87481.28;;;-145.17;58.53
32759;BME280;19125;52.360;9.974;2023-05-03T01:38:17;87493.19;;;-145.17;58.43
32759;BME280;19125;52.360;9.974;2023-05-03T01:40:48;87489.22;;;-145.17;58.56
32759;BME280;19125;52.360;9.974;2023-05-03T01:43:15;87493.19;;;-145.17;58.86
32759;BME280;19125;52.360;9.974;2023-05-03T01:45:42;87522.97;;;-145.17;59.23
32759;BME280;19125;52.360;9.974;2023-05-03T01:48:09;87489.22;;;-145.17;58.42
32759;BME280;19125;52.360;9.974;2023-05-03T01:50:35;87505.09;;;-145.17;59.17
32759;BME280;19125;52.360;9.974;2023-05-03T01:53:00;87505.09;;;-145.17;58.62
32759;BME280;19125;52.360;9.974;2023-05-03T01:55:26;87481.28;;;-145.17;58.87
32759;BME280;19125;52.360;9.974;2023-05-03T01:57:51;87524.94;;;-145.17;59.11
32759;BME280;19125;52.360;9.974;2023-05-03T02:00:17;87507.09;;;-145.17;59.58
32759;BME280;19125;52.360;9.974;2023-05-03T02:02:42;87534.88;;;-145.17;59.19
32759;BME280;19125;52.360;9.974;2023-05-03T02:05:09;87572.59;;;-145.17;59.65
32759;BME280;19125;52.360;9.974;2023-05-03T02:07:35;87608.31;;;-145.17;60.13
32759;BME280;19125;52.360;9.974;2023-05-03T02:10:00;87624.22;;;-145.17;60.72
32759;BME280;19125;52.360;9.974;2023-05-03T02:12:26;87594.44;;;-145.17;60.64
32759;BME280;19125;52.360;9.974;2023-05-03T02:14:52;87632.16;;;-145.17;60.50
32759;BME280;19125;52.360;9.974;2023-05-03T02:17:18;87644.06;;;-145.17;60.59
32759;BME280;19125;52.360;9.974;2023-05-03T02:19:44;87655.97;;;-145.17;60.44
32759;BME280;19125;52.360;9.974;2023-05-03T02:22:10;87648.03;;;-145.17;60.85
32759;BME280;19125;52.360;9.974;2023-05-03T02:24:37;87687.72;;;-145.17;60.71
32759;BME280;19125;52.360;9.974;2023-05-03T02:27:04;87681.78;;;-145.17;60.97
32759;BME280;19125;52.360;9.974;2023-05-03T02:29:29;87699.63;;;-145.17;61.44
32759;BME280;19125;52.360;9.974;2023-05-03T02:31:55;87693.69;;;-145.17;61.00
32759;BME280;19125;52.360;9.974;2023-05-03T02:34:21;87717.50;;;-145.17;61.44
32759;BME280;19125;52.360;9.974;2023-05-03T02:36:46;87769.13;;;-145.17;61.98
32759;BME280;19125;52.360;9.974;2023-05-03T02:39:12;87727.44;;;-145.17;62.04
32759;BME280;19125;52.360;9.974;2023-05-03T02:41:37;87775.06;;;-145.17;62.46
32759;BME280;19125;52.360;9.974;2023-05-03T02:44:02;87739.34;;;-145.17;62.27
32759;BME280;19125;52.360;9.974;2023-05-03T02:46:28;87787.00;;;-145.17;62.45
32759;BME280;19125;52.360;9.974;2023-05-03T02:48:53;87822.72;;;-145.17;62.94
32759;BME280;19125;52.360;9.974;2023-05-03T02:51:18;87834.63;;;-145.17;62.85
32759;BME280;19125;52.360;9.974;2023-05-03T02:53:44;87886.25;;;-145.17;62.58
32759;BME280;19125;52.360;9.974;2023-05-03T02:56:10;87838.59;;;-145.17;63.13
32759;BME280;19125;52.360;9.974;2023-05-03T02:58:36;87826.69;;;-145.17;62.90
32759;BME280;19125;52.360;9.974;2023-05-03T03:01:02;87830.66;;;-145.17;63.13
32759;BME280;19125;52.360;9.974;2023-05-03T03:03:27;87914.03;;;-145.17;62.63
32759;BME280;19125;52.360;9.974;2023-05-03T03:05:52;87854.47;;;-145.17;63.04
32759;BME280;19125;52.360;9.974;2023-05-03T03:08:18;87918.00;;;-145.17;63.14
32759;BME280;19125;52.360;9.974;2023-05-03T03:10:43;87854.47;;;-145.17;62.88
32759;BME280;19125;52.360;9.974;2023-05-03T03:13:08;87902.13;;;-145.17;63.11
32759;BME280;19125;52.360;9.974;2023-05-03T03:15:34;87894.19;;;-145.17;62.84
32759;BME280;19125;52.360;9.974;2023-05-03T03:17:59;87886.25;;;-145.17;63.68
32759;BME280;19125;52.360;9.974;2023-05-03T03:20:24;87882.28;;;-145.17;63.52
32759;BME280;19125;52.360;9.974;2023-05-03T03:22:50;87914.03;;;-145.17;63.31
32759;BME280;19125;52.360;9.974;2023-05-03T03:25:15;87910.06;;;-145.17;63.39
32759;BME280;19125;52.360;9.974;2023-05-03T03:27:41;87959.69;;;-145.17;63.50
32759;BME280;19125;52.360;9.974;2023-05-03T03:30:07;87997.41;;;-145.17;63.41
32759;BME280;19125;52.360;9.974;2023-05-03T03:32:33;87878.31;;;-145.17;63.31
32759;BME280;19125;52.360;9.974;2023-05-03T03:34:59;87888.22;;;-145.17;63.64
32759;BME280;19125;52.360;9.974;2023-05-03T03:37:24;87906.09;;;-145.17;63.25
32759;BME280;19125;52.360;9.974;2023-05-03T03:39:50;87876.31;;;-145.17;63.27
32759;BME280;19125;52.360;9.974;2023-05-03T03:42:15;87906.09;;;-145.17;63.55
32759;BME280;19125;52.360;9.974;2023-05-03T03:44:41;87918.00;;;-145.17;63.02
32759;BME280;19125;52.360;9.974;2023-05-03T03:47:06;87882.28;;;-145.17;63.30
32759;BME280;19125;52.360;9.974;2023-05-03T03:49:32;87920.00;;;-145.17;63.88
32759;BME280;19125;52.360;9.974;2023-05-03T03:51:57;87884.25;;;-145.17;63.33
32759;BME280;19125;52.360;9.974;2023-05-03T03:54:22;87902.13;;;-145.17;63.28
32759;BME280;19125;52.360;9.974;2023-05-03T03:56:48;87858.44;;;-145.17;63.49
32759;BME280;19125;52.360;9.974;2023-05-03T03:59:15;87870.38;;;-145.17;63.21
32759;BME280;19125;52.360;9.974;2023-05-03T04:01:41;87921.97;;;-145.17;63.69
32759;BME280;19125;52.360;9.974;2023-05-03T04:04:06;87868.38;;;-145.17;63.34
32759;BME280;19125;52.360;9.974;2023-05-03T04:06:32;87878.31;;;-145.17;63.65
32759;BME280;19125;52.360;9.974;2023-05-03T04:08:57;87894.19;;;-145.17;63.72
32759;BME280;19125;52.360;9.974;2023-05-03T04:11:23;87925.94;;;-145.17;63.99
32759;BME280;19125;52.360;9.974;2023-05-03T04:13:49;87902.13;;;-145.17;64.10
32759;BME280;19125;52.360;9.974;2023-05-03T04:16:16;87898.16;;;-145.17;63.70
32759;BME280;19125;52.360;9.974;2023-05-03T04:18:42;87886.25;;;-145.17;64.21
32759;BME280;19125;52.360;9.974;2023-05-03T04:21:08;87822.72;;;-145.17;63.70
32759;BME280;19125;52.360;9.974;2023-05-03T04:23:33;87771.09;;;-145.17;62.51
32759;BME280;19125;52.360;9.974;2023-05-03T04:25:58;87727.44;;;-145.17;61.87
32759;BME280;19125;52.360;9.974;2023-05-03T04:28:24;87675.81;;;-145.17;61.14
32759;BME280;19125;52.360;9.974;2023-05-03T04:30:51;87604.34;;;-145.17;60.98
32759;BME280;19125;52.360;9.974;2023-05-03T04:33:17;87522.97;;;-145.17;60.51
32759;BME280;19125;52.360;9.974;2023-05-03T04:35:43;87548.78;;;-145.17;59.80
32759;BME280;19125;52.360;9.974;2023-05-03T04:38:08;87479.28;;;-145.17;59.46
32759;BME280;19125;52.360;9.974;2023-05-03T04:40:34;87477.31;;;-145.17;59.12
32759;BME280;19125;52.360;9.974;2023-05-03T04:42:59;87433.66;;;-145.17;58.98
32759;BME280;19125;52.360;9.974;2023-05-03T04:45:25;87419.75;;;-145.17;58.99
32759;BME280;19125;52.360;9.974;2023-05-03T04:47:51;87427.69;;;-145.17;58.96
32759;BME280;19125;52.360;9.974;2023-05-03T04:50:16;87413.78;;;-145.17;58.40
32759;BME280;19125;52.360;9.974;2023-05-03T04:52:42;87376.06;;;-145.17;58.23
32759;BME280;19125;52.360;9.974;2023-05-03T04:55:07;87362.19;;;-145.17;58.68
32759;BME280;19125;52.360;9.974;2023-05-03T04:57:33;87401.88;;;-145.17;58.28
32759;BME280;19125;52.360;9.974;2023-05-03T04:59:59;87386.00;;;-145.17;58.36
32759;BME280;19125;52.360;9.974;2023-05-03T05:02:24;87350.28;;;-145.17;58.56
32759;BME280;19125;52.360;9.974;2023-05-03T05:04:52;87374.09;;;-145.17;58.59
32759;BME280;19125;52.360;9.974;2023-05-03T05:07:18;87354.25;;;-145.17;58.36
32759;BME280;19125;52.360;9.974;2023-05-03T05:09:43;87332.41;;;-145.17;58.56
32759;BME280;19125;52.360;9.974;2023-05-03T05:12:08;87310.56;;;-145.17;58.14
32759;BME280;19125;52.360;9.974;2023-05-03T05:14:35;87330.44;;;-145.17;57.63
32759;BME280;19125;52.360;9.974;2023-05-03T05:17:01;87334.41;;;-145.17;57.64
32759;BME280;19125;52.360;9.974;2023-05-03T05:19:26;87264.91;;;-145.17;57.60
32759;BME280;19125;52.360;9.974;2023-05-03T05:21:52;87235.16;;;-145.17;57.73
32759;BME280;19125;52.360;9.974;2023-05-03T05:24:17;87235.16;;;-145.17;57.39
32759;BME280;19125;52.360;9.974;2023-05-03T05:26:43;87219.28;;;-145.17;56.88
32759;BME280;19125;52.360;9.974;2023-05-03T05:29:08;87209.34;;;-145.17;56.37
32759;BME280;19125;52.360;9.974;2023-05-03T05:31:34;87235.16;;;-145.17;56.28
32759;BME280;19125;52.360;9.974;2023-05-03T05:34:00;87153.78;;;-145.17;56.18
32759;BME280;19125;52.360;9.974;2023-05-03T05:36:25;87141.84;;;-145.17;55.60
32759;BME280;19125;52.360;9.974;2023-05-03T05:38:51;87080.31;;;-145.17;55.35
32759;BME280;19125;52.360;9.974;2023-05-03T05:41:17;87100.19;;;-145.17;55.08
32759;BME280;19125;52.360;9.974;2023-05-03T05:43:42;87016.81;;;-145.17;54.74
32759;BME280;19125;52.360;9.974;2023-05-03T05:46:08;87072.38;;;-145.17;54.63
32759;BME280;19125;52.360;9.974;2023-05-03T05:48:34;87036.66;;;-145.17;54.38
32759;BME280;19125;52.360;9.974;2023-05-03T05:50:59;87008.88;;;-145.17;54.49
32759;BME280;19125;52.360;9.974;2023-05-03T05:53:25;86983.06;;;-145.17;54.26
32759;BME280;19125;52.360;9.974;2023-05-03T05:55:50;86973.16;;;-145.17;53.60
32759;BME280;19125;52.360;9.974;2023-05-03T05:58:16;86909.63;;;-145.17;53.49
32759;BME280;19125;52.360;9.974;2023-05-03T06:00:41;86911.63;;;-145.17;52.99
32759;BME280;19125;52.360;9.974;2023-05-03T06:03:07;86885.81;;;-145.17;51.40
32759;BME280;19125;52.360;9.974;2023-05-03T06:05:32;86850.09;;;-145.17;50.99
32759;BME280;19125;52.360;9.974;2023-05-03T06:07:57;86826.28;;;-145.17;50.51
32759;BME280;19125;52.360;9.974;2023-05-03T06:10:23;86802.47;;;-145.17;49.96
32759;BME280;19125;52.360;9.974;2023-05-03T06:12:49;86862.00;;;-145.17;49.50
32759;BME280;19125;52.360;9.974;2023-05-03T06:15:15;86768.72;;;-145.17;48.98
32759;BME280;19125;52.360;9.974;2023-05-03T06:17:40;86760.78;;;-145.17;48.32
32759;BME280;19125;52.360;9.974;2023-05-03T06:20:06;86746.91;;;-145.17;48.02
32759;BME280;19125;52.360;9.974;2023-05-03T06:22:36;86733.00;;;-145.17;47.71
32759;BME280;19125;52.360;9.974;2023-05-03T06:25:01;86725.06;;;-145.17;47.85
32759;BME280;19125;52.360;9.974;2023-05-03T06:27:26;86685.38;;;-145.17;47.66
32759;BME280;19125;52.360;9.974;2023-05-03T06:29:52;86663.53;;;-145.17;47.30
32759;BME280;19125;52.360;9.974;2023-05-03T06:32:18;86693.31;;;-145.17;46.79
32759;BME280;19125;52.360;9.974;2023-05-03T06:34:43;86639.72;;;-145.17;46.22
32759;BME280;19125;52.360;9.974;2023-05-03T06:37:08;86687.34;;;-145.17;46.41
32759;BME280;19125;52.360;9.974;2023-05-03T06:39:34;86588.13;;;-145.17;45.84
32759;BME280;19125;52.360;9.974;2023-05-03T06:41:59;86609.94;;;-145.17;45.31
32759;BME280;19125;52.360;9.974;2023-05-03T06:44:25;86556.38;;;-145.17;44.25
32759;BME280;19125;52.360;9.974;2023-05-03T06:46:50;86544.47;;;-145.17;43.28
32759;BME280;19125;52.360;9.974;2023-05-03T06:49:15;86534.53;;;-145.17;42.71
32759;BME280;19125;52.360;9.974;2023-05-03T06:51:41;86522.63;;;-145.17;41.96
32759;BME280;19125;52.360;9.974;2023-05-03T06:54:06;86524.63;;;-145.17;42.67
32759;BME280;19125;52.360;9.974;2023-05-03T06:56:33;86496.84;;;-145.17;41.15
32759;BME280;19125;52.360;9.974;2023-05-03T06:58:59;86524.63;;;-145.17;40.27
32759;BME280;19125;52.360;9.974;2023-05-03T07:01:28;86473.03;;;-145.17;39.92
32759;BME280;19125;52.360;9.974;2023-05-03T07:03:53;86512.72;;;-145.17;40.05
32759;BME280;19125;52.360;9.974;2023-05-03T07:06:18;86480.97;;;-145.17;40.33
32759;BME280;19125;52.360;9.974;2023-05-03T07:08:44;86469.06;;;-145.17;38.49
32759;BME280;19125;52.360;9.974;2023-05-03T07:11:10;86492.88;;;-145.17;37.84
32759;BME280;19125;52.360;9.974;2023-05-03T07:13:35;86475.00;;;-145.17;37.75
32759;BME280;19125;52.360;9.974;2023-05-03T07:16:01;86504.78;;;-145.17;38.21
32759;BME280;19125;52.360;9.974;2023-05-03T07:18:26;86441.25;;;-145.17;38.03
32759;BME280;19125;52.360;9.974;2023-05-03T07:20:52;86395.63;;;-145.17;37.66
32759;BME280;19125;52.360;9.974;2023-05-03T07:23:17;86385.69;;;-145.17;36.70
32759;BME280;19125;52.360;9.974;2023-05-03T07:25:43;86391.66;;;-145.17;36.87
32759;BME280;19125;52.360;9.974;2023-05-03T07:28:09;86369.81;;;-145.17;36.57
32759;BME280;19125;52.360;9.974;2023-05-03T07:30:35;86359.91;;;-145.17;36.22
32759;BME280;19125;52.360;9.974;2023-05-03T07:33:00;86330.13;;;-145.17;35.83
32759;BME280;19125;52.360;9.974;2023-05-03T07:35:25;86278.53;;;-145.17;35.54
32759;BME280;19125;52.360;9.974;2023-05-03T07:37:51;86296.41;;;-145.17;35.15
32759;BME280;19125;52.360;9.974;2023-05-03T07:40:16;86262.66;;;-145.17;34.82
32759;BME280;19125;52.360;9.974;2023-05-03T07:42:42;86326.16;;;-145.17;34.46
32759;BME280;19125;52.360;9.974;2023-05-03T07:45:08;86302.34;;;-145.17;35.10
32759;BME280;19125;52.360;9.974;2023-05-03T07:47:33;86314.25;;;-145.17;35.14
32759;BME280;19125;52.360;9.974;2023-05-03T07:50:02;86340.06;;;-145.17;34.92
32759;BME280;19125;52.360;9.974;2023-05-03T07:52:29;86385.69;;;-145.17;35.24
32759;BME280;19125;52.360;9.974;2023-05-03T07:54:55;86389.66;;;-145.17;35.64
32759;BME280;19125;52.360;9.974;2023-05-03T07:57:20;86385.69;;;-145.17;36.00
32759;BME280;19125;52.360;9.974;2023-05-03T07:59:47;86391.66;;;-145.17;36.30
32759;BME280;19125;52.360;9.974;2023-05-03T08:02:13;86397.59;;;-145.17;36.15
32759;BME280;19125;52.360;9.974;2023-05-03T08:04:38;86387.69;;;-145.17;36.73
32759;BME280;19125;52.360;9.974;2023-05-03T08:07:04;86389.66;;;-145.17;36.30
32759;BME280;19125;52.360;9.974;2023-05-03T08:09:29;86361.88;;;-145.17;36.04
32759;BME280;19125;52.360;9.974;2023-05-03T08:11:55;86377.75;;;-145.17;36.07
32759;BME280;19125;52.360;9.974;2023-05-03T08:14:22;86391.66;;;-145.17;35.64
32759;BME280;19125;52.360;9.974;2023-05-03T08:16:47;86397.59;;;-145.17;35.83
32759;BME280;19125;52.360;9.974;2023-05-03T08:19:13;86439.28;;;-145.17;36.30
32759;BME280;19125;52.360;9.974;2023-05-03T08:21:38;86342.03;;;-145.17;36.12
32759;BME280;19125;52.360;9.974;2023-05-03T08:24:04;86320.22;;;-145.17;35.79
32759;BME280;19125;52.360;9.974;2023-05-03T08:26:33;86298.38;;;-145.17;35.23
32759;BME280;19125;52.360;9.974;2023-05-03T08:28:59;86266.63;;;-145.17;34.77
32759;BME280;19125;52.360;9.974;2023-05-03T08:31:25;86215.03;;;-145.17;34.48
32759;BME280;19125;52.360;9.974;2023-05-03T08:33:51;86254.72;;;-145.17;33.69
32759;BME280;19125;52.360;9.974;2023-05-03T08:36:16;86236.88;;;-145.17;33.81
32759;BME280;19125;52.360;9.974;2023-05-03T08:38:42;86234.88;;;-145.17;33.61
32759;BME280;19125;52.360;9.974;2023-05-03T08:41:16;86177.34;;;-145.17;34.01
32759;BME280;19125;52.360;9.974;2023-05-03T08:43:43;86232.91;;;-145.17;33.56
32759;BME280;19125;52.360;9.974;2023-05-03T08:46:10;86195.19;;;-145.17;34.67
32759;BME280;19125;52.360;9.974;2023-05-03T08:48:37;86159.47;;;-145.17;34.70
32759;BME280;19125;52.360;9.974;2023-05-03T08:51:03;86151.53;;;-145.17;34.05
32759;BME280;19125;52.360;9.974;2023-05-03T08:53:29;86117.81;;;-145.17;33.81
32759;BME280;19125;52.360;9.974;2023-05-03T08:55:54;86094.00;;;-145.17;33.25
32759;BME280;19125;52.360;9.974;2023-05-03T08:58:20;86080.09;;;-145.17;32.97
32759;BME280;19125;52.360;9.974;2023-05-03T09:00:45;86084.06;;;-145.17;32.59
32759;BME280;19125;52.360;9.974;2023-05-03T09:03:11;86074.16;;;-145.17;32.10
32759;BME280;19125;52.360;9.974;2023-05-03T09:05:36;86099.94;;;-145.17;32.28
32759;BME280;19125;52.360;9.974;2023-05-03T09:08:11;86137.66;;;-145.17;32.08
32759;BME280;19125;52.360;9.974;2023-05-03T09:10:39;86099.94;;;-145.17;32.28
32759;BME280;19125;52.360;9.974;2023-05-03T09:13:05;86115.81;;;-145.17;32.26
32759;BME280;19125;52.360;9.974;2023-05-03T09:15:32;86125.75;;;-145.17;32.20
32759;BME280;19125;52.360;9.974;2023-05-03T09:18:19;86155.50;;;-145.17;32.45
32759;BME280;19125;52.360;9.974;2023-05-03T09:20:46;86183.28;;;-145.17;32.76
32759;BME280;19125;52.360;9.974;2023-05-03T09:25:53;86203.13;;;-145.17;33.53
32759;BME280;19125;52.360;9.974;2023-05-03T09:28:19;86155.50;;;-145.17;33.20
32759;BME280;19125;52.360;9.974;2023-05-03T09:30:46;86167.41;;;-145.17;32.93
32759;BME280;19125;52.360;9.974;2023-05-03T09:33:12;86157.50;;;-145.17;32.81
32759;BME280;19125;52.360;9.974;2023-05-03T09:36:01;86169.41;;;-145.17;32.49
32759;BME280;19125;52.360;9.974;2023-05-03T09:38:29;86133.69;;;-145.17;32.40
32759;BME280;19125;52.360;9.974;2023-05-03T09:40:55;86060.25;;;-145.17;32.71
32759;BME280;19125;52.360;9.974;2023-05-03T09:43:21;86078.13;;;-145.17;32.15
32759;BME280;19125;52.360;9.974;2023-05-03T09:45:47;86103.91;;;-145.17;31.80
32759;BME280;19125;52.360;9.974;2023-05-03T09:48:12;86082.09;;;-145.17;31.99
32759;BME280;19125;52.360;9.974;2023-05-03T09:50:37;86088.03;;;-145.17;32.10
32759;BME280;19125;52.360;9.974;2023-05-03T09:53:05;86149.56;;;-145.17;31.86
32759;BME280;19125;52.360;9.974;2023-05-03T09:55:34;86127.72;;;-145.17;32.29
32759;BME280;19125;52.360;9.974;2023-05-03T09:58:00;86135.66;;;-145.17;32.10
32759;BME280;19125;52.360;9.974;2023-05-03T10:00:28;86207.09;;;-145.17;32.53
32759;BME280;19125;52.360;9.974;2023-05-03T10:02:55;86179.31;;;-145.17;32.14
32759;BME280;19125;52.360;9.974;2023-05-03T10:05:23;86159.47;;;-145.17;32.51
32759;BME280;19125;52.360;9.974;2023-05-03T10:07:51;86125.75;;;-145.17;32.48
32759;BME280;19125;52.360;9.974;2023-05-03T10:10:19;86115.81;;;-145.17;32.49
32759;BME280;19125;52.360;9.974;2023-05-03T10:12:45;86090.03;;;-145.17;32.59
32759;BME280;19125;52.360;9.974;2023-05-03T10:15:12;86036.44;;;-145.17;33.29
32759;BME280;19125;52.360;9.974;2023-05-03T10:17:41;86000.72;;;-145.17;32.76
32759;BME280;19125;52.360;9.974;2023-05-03T10:20:35;86002.72;;;-145.17;31.87
32759;BME280;19125;52.360;9.974;2023-05-03T10:25:30;85919.38;;;-145.17;30.42
32759;BME280;19125;52.360;9.974;2023-05-03T10:28:14;85897.53;;;-145.17;30.08
32759;BME280;19125;52.360;9.974;2023-05-03T10:30:40;85915.41;;;-145.17;30.46
32759;BME280;19125;52.360;9.974;2023-05-03T10:35:38;85929.28;;;-145.17;30.38
32759;BME280;19125;52.360;9.974;2023-05-03T10:38:13;86022.56;;;-145.17;30.26
32759;BME280;19125;52.360;9.974;2023-05-03T10:40:42;86018.59;;;-145.17;30.93
32759;BME280;19125;52.360;9.974;2023-05-03T10:46:03;86149.56;;;-145.17;31.27
32759;BME280;19125;52.360;9.974;2023-05-03T10:48:29;86068.19;;;-145.17;31.35
32759;BME280;19125;52.360;9.974;2023-05-03T10:50:55;86052.31;;;-145.17;31.33
32759;BME280;19125;52.360;9.974;2023-05-03T10:56:10;85976.91;;;-145.17;30.37
32759;BME280;19125;52.360;9.974;2023-05-03T10:58:47;85929.28;;;-145.17;31.21
32759;BME280;19125;52.360;9.974;2023-05-03T11:01:15;85978.91;;;-145.17;30.41
32759;BME280;19125;52.360;9.974;2023-05-03T11:06:38;85899.53;;;-145.17;32.14
32759;BME280;19125;52.360;9.974;2023-05-03T11:09:06;85913.41;;;-145.17;30.88
32759;BME280;19125;52.360;9.974;2023-05-03T11:11:34;85871.75;;;-145.17;30.69
32759;BME280;19125;52.360;9.974;2023-05-03T11:14:00;85869.78;;;-145.17;30.37
32759;BME280;19125;52.360;9.974;2023-05-03T11:16:27;85865.81;;;-145.17;30.88
32759;BME280;19125;52.360;9.974;2023-05-03T11:18:53;85877.72;;;-145.17;30.57
32759;BME280;19125;52.360;9.974;2023-05-03T11:21:19;85843.97;;;-145.17;29.84
32759;BME280;19125;52.360;9.974;2023-05-03T11:23:45;85776.50;;;-145.17;29.88
32759;BME280;19125;52.360;9.974;2023-05-03T11:26:12;85845.97;;;-145.17;29.87
32759;BME280;19125;52.360;9.974;2023-05-03T11:28:38;85873.75;;;-145.17;29.60
32759;BME280;19125;52.360;9.974;2023-05-03T11:31:05;85830.09;;;-145.17;29.35
32759;BME280;19125;52.360;9.974;2023-05-03T11:33:31;85853.91;;;-145.17;29.50
32759;BME280;19125;52.360;9.974;2023-05-03T11:36:00;85853.91;;;-145.17;29.29
32759;BME280;19125;52.360;9.974;2023-05-03T11:38:29;85842.00;;;-145.17;28.85
32759;BME280;19125;52.360;9.974;2023-05-03T11:40:55;85847.94;;;-145.17;29.03
32759;BME280;19125;52.360;9.974;2023-05-03T11:43:21;85814.22;;;-145.17;29.60
32759;BME280;19125;52.360;9.974;2023-05-03T11:45:47;85780.47;;;-145.17;28.89
32759;BME280;19125;52.360;9.974;2023-05-03T11:48:15;85766.59;;;-145.17;28.89
32759;BME280;19125;52.360;9.974;2023-05-03T11:53:13;85774.53;;;-145.17;29.14
32759;BME280;19125;52.360;9.974;2023-05-03T11:55:44;85764.59;;;-145.17;28.75
32759;BME280;19125;52.360;9.974;2023-05-03T11:58:23;85711.03;;;-145.17;28.04
32759;BME280;19125;52.360;9.974;2023-05-03T12:00:50;85691.19;;;-145.17;28.59
32759;BME280;19125;52.360;9.974;2023-05-03T12:03:18;85683.25;;;-145.17;28.10
32759;BME280;19125;52.360;9.974;2023-05-03T12:05:45;85717.00;;;-145.17;28.38
32759;BME280;19125;52.360;9.974;2023-05-03T12:08:12;85707.06;;;-145.17;27.63
32759;BME280;19125;52.360;9.974;2023-05-03T12:10:37;85740.78;;;-145.17;27.59
32759;BME280;19125;52.360;9.974;2023-05-03T12:13:02;85679.28;;;-145.17;27.91
32759;BME280;19125;52.360;9.974;2023-05-03T12:17:58;85754.69;;;-145.17;27.03
32759;BME280;19125;52.360;9.974;2023-05-03T12:20:25;85756.66;;;-145.17;27.38
32759;BME280;19125;52.360;9.974;2023-05-03T12:23:01;85750.72;;;-145.17;27.25
32759;BME280;19125;52.360;9.974;2023-05-03T12:25:28;85766.59;;;-145.17;27.63
32759;BME280;19125;52.360;9.974;2023-05-03T12:27:55;85740.78;;;-145.17;28.28
32759;BME280;19125;52.360;9.974;2023-05-03T12:30:21;85744.75;;;-145.17;28.74
32759;BME280;19125;52.360;9.974;2023-05-03T12:32:47;85693.19;;;-145.17;27.66
32759;BME280;19125;52.360;9.974;2023-05-03T12:35:12;85715.00;;;-145.17;27.78
32759;BME280;19125;52.360;9.974;2023-05-03T12:37:37;85717.00;;;-145.17;27.67
32759;BME280;19125;52.360;9.974;2023-05-03T12:40:04;85717.00;;;-145.17;27.47
32759;BME280;19125;52.360;9.974;2023-05-03T12:42:30;85766.59;;;-145.17;27.90
32759;BME280;19125;52.360;9.974;2023-05-03T12:44:56;85736.81;;;-145.17;27.58
32759;BME280;19125;52.360;9.974;2023-05-03T12:47:22;85742.78;;;-145.17;27.74
32759;BME280;19125;52.360;9.974;2023-05-03T12:49:47;85758.66;;;-145.17;27.46
32759;BME280;19125;52.360;9.974;2023-05-03T12:52:12;85744.75;;;-145.17;27.70
32759;BME280;19125;52.360;9.974;2023-05-03T12:54:38;85722.94;;;-145.17;27.81
32759;BME280;19125;52.360;9.974;2023-05-03T12:57:03;85691.19;;;-145.17;28.14
32759;BME280;19125;52.360;9.974;2023-05-03T12:59:29;85675.31;;;-145.17;27.52
32759;BME280;19125;52.360;9.974;2023-05-03T13:01:55;85657.47;;;-145.17;27.57
32759;BME280;19125;52.360;9.974;2023-05-03T13:04:23;85695.16;;;-145.17;27.10
32759;BME280;19125;52.360;9.974;2023-05-03T13:06:48;85675.31;;;-145.17;27.06
32759;BME280;19125;52.360;9.974;2023-05-03T13:09:15;85671.34;;;-145.17;27.15